Time;durP1;ratioP1;P1;durP2;ratioP2;P2;SDS_P1;SDS_P2;PMS_P1;PMS_P2;Temp;Humidity;BMP_temperature;BMP_pressure;BME280_temperature;BME280_humidity;BME280_pressure;Samples;Min_cycle;Max_cycle;Signal;HPM_P1;HPM_P2
2023/08/22 00:00:41;;;;;;;6.15;4.05;;;;;21.30;94703.00;;;;7398196;19;20136;-75
2023/08/22 00:03:09;;;;;;;5.75;4.03;;;;;21.30;94699.00;;;;7397026;19;20197;-75
2023/08/22 00:05:37;;;;;;;6.03;3.67;;;;;21.30;94694.00;;;;7394700;19;20157;-75
2023/08/22 00:08:11;;;;;;;7.97;4.15;;;;;21.30;94695.00;;;;7399014;19;20154;-74
2023/08/22 00:10:46;;;;;;;5.22;3.95;;;;;21.30;94698.00;;;;7397717;19;20524;-75
2023/08/22 00:13:14;;;;;;;7.35;3.95;;;;;21.30;94693.00;;;;7399666;19;20455;-74
2023/08/22 00:15:49;;;;;;;5.80;3.65;;;;;21.30;94692.00;;;;7397101;19;20619;-74
2023/08/22 00:18:17;;;;;;;8.25;4.13;;;;;21.20;94693.00;;;;7399252;19;20592;-74
2023/08/22 00:20:45;;;;;;;8.00;3.83;;;;;21.20;94694.00;;;;7398842;19;20145;-74
2023/08/22 00:23:19;;;;;;;7.30;3.78;;;;;21.30;94694.00;;;;7397650;19;20618;-74
2023/08/22 00:25:47;;;;;;;4.85;3.58;;;;;21.30;94684.00;;;;7398226;19;20141;-75
2023/08/22 00:28:21;;;;;;;4.38;3.45;;;;;21.20;94677.00;;;;7399731;19;20159;-76
2023/08/22 00:30:56;;;;;;;8.32;3.65;;;;;21.30;94681.00;;;;7397279;19;20144;-75
2023/08/22 00:33:30;;;;;;;6.70;3.88;;;;;21.20;94679.00;;;;7398116;19;20153;-75
2023/08/22 00:35:58;;;;;;;4.68;3.50;;;;;21.30;94681.00;;;;7398179;19;20169;-78
2023/08/22 00:38:32;;;;;;;5.40;3.45;;;;;21.20;94681.00;;;;7392585;19;20152;-76
2023/08/22 00:41:00;;;;;;;4.80;3.55;;;;;21.20;94677.00;;;;7387485;19;20481;-78
2023/08/22 00:43:34;;;;;;;7.70;3.90;;;;;21.10;94678.00;;;;7399125;19;20199;-76
2023/08/22 00:46:02;;;;;;;4.88;3.13;;;;;21.10;94677.00;;;;7394204;19;20545;-75
2023/08/22 00:48:36;;;;;;;5.60;3.33;;;;;21.10;94677.00;;;;7396388;19;20181;-78
2023/08/22 00:51:04;;;;;;;5.40;3.20;;;;;21.20;94669.00;;;;7397044;19;20149;-76
2023/08/22 00:53:39;;;;;;;5.18;3.50;;;;;21.10;94665.00;;;;7397976;19;20140;-76
2023/08/22 00:56:14;;;;;;;4.57;3.30;;;;;21.10;94661.00;;;;7396966;19;20144;-77
2023/08/22 00:58:42;;;;;;;3.97;3.10;;;;;21.10;94665.00;;;;7398592;19;20141;-76
2023/08/22 01:01:17;;;;;;;6.45;3.38;;;;;21.10;94666.00;;;;7396157;19;20136;-78
2023/08/22 01:03:45;;;;;;;4.57;2.90;;;;;21.10;94658.00;;;;7394213;19;20188;-77
2023/08/22 01:06:31;;;;;;;4.93;3.50;;;;;21.10;94645.00;;;;7394492;19;20631;-80
2023/08/22 01:09:07;;;;;;;6.78;3.17;;;;;21.00;94655.00;;;;7396412;19;20141;-76
2023/08/22 01:11:47;;;;;;;4.45;3.17;;;;;20.90;94653.00;;;;7396436;19;20140;-76
2023/08/22 01:14:20;;;;;;;4.78;3.28;;;;;20.80;94663.00;;;;7394764;19;20599;-78
2023/08/22 01:16:55;;;;;;;5.70;3.10;;;;;20.80;94653.00;;;;7396075;19;20144;-76
2023/08/22 01:19:23;;;;;;;3.88;3.13;;;;;20.80;94656.00;;;;7395051;19;20481;-77
2023/08/22 01:21:57;;;;;;;8.38;3.72;;;;;20.70;94656.00;;;;7396927;19;20150;-78
2023/08/22 01:24:25;;;;;;;4.38;2.80;;;;;20.70;94658.00;;;;7397036;19;20234;-77
2023/08/22 01:27:00;;;;;;;4.53;3.20;;;;;20.70;94655.00;;;;7395244;19;21295;-77
2023/08/22 01:29:46;;;;;;;4.05;3.05;;;;;20.70;94656.00;;;;7395707;19;20218;-76
2023/08/22 01:32:32;;;;;;;6.85;3.03;;;;;20.60;94658.00;;;;7396396;19;20140;-77
2023/08/22 01:35:11;;;;;;;4.28;3.10;;;;;20.50;94658.00;;;;7396204;19;20141;-78
2023/08/22 01:37:46;;;;;;;3.75;3.00;;;;;20.50;94658.00;;;;7396687;19;20133;-82
2023/08/22 01:40:15;;;;;;;5.43;3.17;;;;;20.30;94659.00;;;;7394956;19;20141;-80
2023/08/22 01:42:49;;;;;;;4.07;3.00;;;;;20.10;94648.00;;;;7395942;19;20143;-82
2023/08/22 01:45:17;;;;;;;5.68;2.90;;;;;20.10;94650.00;;;;7393732;19;20623;-81
2023/08/22 01:47:51;;;;;;;5.97;3.60;;;;;20.10;94644.00;;;;7394631;19;20172;-81
2023/08/22 01:50:19;;;;;;;5.00;3.20;;;;;20.20;94647.00;;;;7395490;19;20141;-82
2023/08/22 01:52:48;;;;;;;6.97;3.53;;;;;20.10;94648.00;;;;7395190;19;20517;-82
2023/08/22 01:55:22;;;;;;;5.60;3.58;;;;;20.30;94643.00;;;;7396206;19;20152;-84
2023/08/22 01:57:56;;;;;;;5.75;3.28;;;;;20.20;94637.00;;;;7396176;19;20177;-84
2023/08/22 02:00:31;;;;;;;6.32;3.50;;;;;20.20;94635.00;;;;7390128;19;20238;-83
2023/08/22 02:03:12;;;;;;;4.60;3.22;;;;;20.20;94635.00;;;;7393228;19;20160;-83
2023/08/22 02:05:40;;;;;;;4.75;3.63;;;;;20.20;94630.00;;;;7393682;19;20627;-83
2023/08/22 02:08:14;;;;;;;4.55;3.55;;;;;20.00;94635.00;;;;7395659;19;20146;-81
2023/08/22 02:10:45;;;;;;;8.23;3.60;;;;;20.20;94631.00;;;;7394152;19;20722;-81
2023/08/22 02:13:19;;;;;;;6.32;3.13;;;;;20.10;94638.00;;;;7397311;19;20136;-82
2023/08/22 02:15:47;;;;;;;5.05;3.63;;;;;20.20;94630.00;;;;7393584;19;20144;-82
2023/08/22 02:18:15;;;;;;;3.90;3.22;;;;;20.20;94626.00;;;;7394459;19;20139;-82
2023/08/22 02:20:53;;;;;;;5.68;3.15;;;;;20.20;94630.00;;;;7395200;19;20144;-83
2023/08/22 02:23:21;;;;;;;3.83;3.33;;;;;20.10;94636.00;;;;7395368;19;20125;-82
2023/08/22 02:25:55;;;;;;;4.00;3.47;;;;;20.00;94632.00;;;;7392425;19;20172;-81
2023/08/22 02:28:29;;;;;;;5.95;3.08;;;;;20.00;94624.00;;;;7396870;19;20137;-83
2023/08/22 02:31:03;;;;;;;6.55;3.10;;;;;20.00;94630.00;;;;7392876;19;20823;-82
2023/08/22 02:33:31;;;;;;;8.23;3.22;;;;;20.00;94631.00;;;;7394731;19;20166;-83
2023/08/22 02:36:06;;;;;;;4.80;3.28;;;;;20.10;94631.00;;;;7394068;19;20142;-81
2023/08/22 02:38:33;;;;;;;4.78;3.35;;;;;20.10;94631.00;;;;7393453;19;20145;-81
2023/08/22 02:41:07;;;;;;;4.93;3.05;;;;;20.10;94629.00;;;;7393159;19;20516;-81
2023/08/22 02:43:41;;;;;;;5.28;2.80;;;;;20.20;94627.00;;;;7396332;19;20129;-82
2023/08/22 02:46:09;;;;;;;3.58;3.17;;;;;20.20;94626.00;;;;7393254;19;20216;-81
2023/08/22 02:48:43;;;;;;;4.60;3.05;;;;;20.20;94623.00;;;;7392563;19;20144;-75
2023/08/22 02:51:17;;;;;;;4.28;3.10;;;;;20.10;94623.00;;;;7394193;19;20149;-73
2023/08/22 02:53:51;;;;;;;6.70;3.00;;;;;20.00;94630.00;;;;7394751;19;20135;-75
2023/08/22 02:56:25;;;;;;;4.82;3.15;;;;;20.00;94630.00;;;;7392259;19;20149;-76
2023/08/22 02:58:59;;;;;;;3.30;2.92;;;;;20.10;94621.00;;;;7395715;19;20140;-75
2023/08/22 03:01:33;;;;;;;6.68;3.00;;;;;20.00;94624.00;;;;7392510;19;20145;-72
2023/08/22 03:04:02;;;;;;;4.47;3.25;;;;;20.00;94621.00;;;;7391458;19;20229;-75
2023/08/22 03:06:43;;;;;;;4.63;2.72;;;;;20.10;94619.00;;;;7393005;19;20203;-74
2023/08/22 03:09:17;;;;;;;4.60;3.20;;;;;19.90;94618.00;;;;7392822;19;20145;-74
2023/08/22 03:11:47;;;;;;;5.95;3.67;;;;;19.90;94614.00;;;;7391236;19;20145;-74
2023/08/22 03:14:21;;;;;;;3.70;3.30;;;;;19.80;94626.00;;;;7394129;19;20618;-76
2023/08/22 03:16:49;;;;;;;3.40;2.83;;;;;19.90;94615.00;;;;7393068;19;20513;-76
2023/08/22 03:19:23;;;;;;;3.88;3.10;;;;;19.90;94627.00;;;;7393643;19;20132;-75
2023/08/22 03:21:57;;;;;;;6.13;2.72;;;;;19.80;94613.00;;;;7393867;19;20527;-76
2023/08/22 03:24:31;;;;;;;3.67;3.33;;;;;19.60;94614.00;;;;7394373;19;20153;-75
2023/08/22 03:27:05;;;;;;;6.65;3.53;;;;;19.50;94622.00;;;;7391500;19;20137;-75
2023/08/22 03:29:39;;;;;;;8.02;3.28;;;;;19.60;94626.00;;;;7400011;19;20155;-77
2023/08/22 03:32:13;;;;;;;4.25;3.63;;;;;19.70;94614.00;;;;7399842;19;20137;-74
2023/08/22 03:34:41;;;;;;;3.22;2.90;;;;;19.70;94614.00;;;;7397710;19;20133;-73
2023/08/22 03:37:16;;;;;;;4.03;2.90;;;;;19.80;94620.00;;;;7401186;19;20791;-74
2023/08/22 03:39:50;;;;;;;4.28;3.13;;;;;19.90;94620.00;;;;7399179;19;20153;-73
2023/08/22 03:42:24;;;;;;;4.38;3.05;;;;;19.90;94618.00;;;;7398013;19;20543;-74
2023/08/22 03:44:58;;;;;;;7.88;3.70;;;;;19.90;94622.00;;;;7398551;19;20145;-75
2023/08/22 03:47:32;;;;;;;5.22;3.20;;;;;19.90;94612.00;;;;7399480;19;20606;-75
2023/08/22 03:50:00;;;;;;;4.53;3.10;;;;;19.90;94614.00;;;;7397751;19;20141;-75
2023/08/22 03:52:28;;;;;;;3.60;2.88;;;;;19.90;94610.00;;;;7399158;19;20261;-74
2023/08/22 03:55:03;;;;;;;6.93;3.03;;;;;19.90;94612.00;;;;7399910;19;20702;-74
2023/08/22 03:57:38;;;;;;;6.03;2.92;;;;;19.70;94616.00;;;;7397990;19;20140;-77
2023/08/22 04:00:07;;;;;;;3.25;2.95;;;;;19.80;94615.00;;;;7397573;19;20212;-79
2023/08/22 04:02:41;;;;;;;3.20;2.60;;;;;19.80;94620.00;;;;7398195;19;20168;-77
2023/08/22 04:05:09;;;;;;;4.07;2.70;;;;;19.90;94626.00;;;;7397269;19;20165;-76
2023/08/22 04:07:50;;;;;;;7.15;3.58;;;;;19.90;94622.00;;;;7398977;19;20200;-76
2023/08/22 04:10:26;;;;;;;6.72;3.15;;;;;19.90;94623.00;;;;7391363;19;20643;-76
2023/08/22 04:12:55;;;;;;;4.30;2.78;;;;;19.90;94623.00;;;;7398036;19;20169;-77
2023/08/22 04:15:29;;;;;;;5.78;3.15;;;;;19.90;94625.00;;;;7397620;19;20665;-77
2023/08/22 04:17:57;;;;;;;3.90;2.72;;;;;19.90;94627.00;;;;7399997;19;20165;-77
2023/08/22 04:20:31;;;;;;;3.40;2.83;;;;;20.10;94626.00;;;;7397241;19;20186;-77
2023/08/22 04:22:59;;;;;;;6.88;3.00;;;;;19.90;94632.00;;;;7399010;19;20200;-76
2023/08/22 04:25:33;;;;;;;5.63;3.20;;;;;20.00;94634.00;;;;7397886;19;20215;-76
2023/08/22 04:28:03;;;;;;;4.93;2.92;;;;;20.00;94632.00;;;;7398466;19;20125;-76
2023/08/22 04:30:38;;;;;;;5.93;3.78;;;;;20.00;94634.00;;;;7398826;19;20147;-76
2023/08/22 04:33:12;;;;;;;5.82;2.92;;;;;20.00;94636.00;;;;7398563;19;20603;-76
2023/08/22 04:35:41;;;;;;;3.97;3.10;;;;;20.00;94631.00;;;;7396646;19;20612;-77
2023/08/22 04:38:16;;;;;;;3.80;2.63;;;;;19.90;94629.00;;;;7397305;19;20151;-76
2023/08/22 04:40:50;;;;;;;4.55;3.08;;;;;20.00;94635.00;;;;7396880;19;20613;-76
2023/08/22 04:43:24;;;;;;;7.45;2.90;;;;;19.90;94633.00;;;;7397382;19;20292;-76
2023/08/22 04:46:00;;;;;;;5.55;2.92;;;;;20.00;94639.00;;;;7397195;19;20121;-76
2023/08/22 04:48:27;;;;;;;5.47;2.72;;;;;20.10;94634.00;;;;7396651;19;20145;-76
2023/08/22 04:51:02;;;;;;;4.53;2.90;;;;;20.10;94640.00;;;;7397835;19;20494;-75
2023/08/22 04:53:36;;;;;;;3.67;3.13;;;;;20.20;94639.00;;;;7395933;19;20520;-76
2023/08/22 04:56:11;;;;;;;6.15;3.58;;;;;20.40;94643.00;;;;7397928;19;20134;-77
2023/08/22 04:58:39;;;;;;;4.43;3.13;;;;;20.40;94642.00;;;;7397512;19;20137;-77
2023/08/22 05:01:06;;;;;;;5.70;3.35;;;;;20.60;94636.00;;;;7397381;19;20480;-76
2023/08/22 05:03:40;;;;;;;4.50;2.70;;;;;20.50;94638.00;;;;7395914;19;20140;-75
2023/08/22 05:06:15;;;;;;;5.05;3.10;;;;;20.70;94644.00;;;;7394848;19;20169;-75
2023/08/22 05:08:49;;;;;;;3.92;3.08;;;;;20.70;94641.00;;;;7397420;19;20149;-72
2023/08/22 05:11:17;;;;;;;3.65;2.95;;;;;20.70;94636.00;;;;7394135;19;20133;-73
2023/08/22 05:13:47;;;;;;;5.15;3.05;;;;;20.70;94640.00;;;;7396680;19;20626;-73
2023/08/22 05:16:21;;;;;;;7.97;3.20;;;;;20.80;94639.00;;;;7396290;19;20152;-72
2023/08/22 05:18:49;;;;;;;5.25;3.38;;;;;21.00;94638.00;;;;7395374;19;20208;-72
2023/08/22 05:21:24;;;;;;;3.30;3.00;;;;;21.10;94636.00;;;;7395434;19;20163;-73
2023/08/22 05:23:52;;;;;;;3.30;3.00;;;;;21.20;94631.00;;;;7395650;19;20137;-70
2023/08/22 05:26:26;;;;;;;5.68;3.50;;;;;21.20;94634.00;;;;7393453;19;20786;-72
2023/08/22 05:29:00;;;;;;;4.40;3.60;;;;;21.20;94635.00;;;;7396112;19;20145;-71
2023/08/22 05:31:34;;;;;;;5.22;3.03;;;;;21.30;94636.00;;;;7395850;19;20159;-72
2023/08/22 05:34:08;;;;;;;3.10;2.80;;;;;21.50;94633.00;;;;7395306;19;20144;-73
2023/08/22 05:36:42;;;;;;;5.38;3.50;;;;;21.60;94640.00;;;;7397137;19;20212;-73
2023/08/22 05:39:16;;;;;;;4.57;3.42;;;;;21.70;94640.00;;;;7396020;19;20173;-74
2023/08/22 05:41:44;;;;;;;3.22;2.92;;;;;21.70;94641.00;;;;7395967;19;20137;-74
2023/08/22 05:44:19;;;;;;;8.35;3.50;;;;;21.80;94642.00;;;;7396028;19;20247;-74
2023/08/22 05:46:47;;;;;;;5.97;3.85;;;;;21.80;94638.00;;;;7394612;19;20363;-73
2023/08/22 05:49:21;;;;;;;4.47;3.45;;;;;22.00;94638.00;;;;7394483;19;20124;-73
2023/08/22 05:51:59;;;;;;;3.65;3.25;;;;;22.10;94639.00;;;;7394073;19;20156;-73
2023/08/22 05:54:35;;;;;;;3.78;3.25;;;;;22.20;94644.00;;;;7382082;19;20196;-73
2023/08/22 05:57:03;;;;;;;7.68;3.60;;;;;22.30;94646.00;;;;7383647;19;20143;-72
2023/08/22 05:59:41;;;;;;;3.67;3.10;;;;;22.50;94642.00;;;;7384150;19;20139;-74
2023/08/22 06:02:09;;;;;;;8.43;3.20;;;;;22.60;94644.00;;;;7382567;19;20548;-72
2023/08/22 06:04:47;;;;;;;4.90;3.33;;;;;22.80;94650.00;;;;7383929;19;20133;-73
2023/08/22 06:07:28;;;;;;;5.03;3.17;;;;;22.80;94651.00;;;;7382237;19;20212;-73
2023/08/22 06:09:56;;;;;;;4.82;3.60;;;;;23.10;94652.00;;;;7379577;19;20157;-73
2023/08/22 06:12:34;;;;;;;5.40;3.53;;;;;23.20;94644.00;;;;7383298;19;20149;-71
2023/08/22 06:15:10;;;;;;;6.20;3.13;;;;;23.20;94652.00;;;;7382822;19;20919;-71
2023/08/22 06:17:44;;;;;;;3.28;2.97;;;;;23.40;94642.00;;;;7383453;19;20583;-81
2023/08/22 06:20:12;;;;;;;3.72;3.33;;;;;23.50;94651.00;;;;7384819;19;20551;-80
2023/08/22 06:22:47;;;;;;;5.80;3.28;;;;;23.50;94659.00;;;;7382010;19;20148;-76
2023/08/22 06:25:15;;;;;;;4.15;3.17;;;;;23.70;94654.00;;;;7384129;19;20612;-81
2023/08/22 06:27:49;;;;;;;5.93;3.47;;;;;23.80;94656.00;;;;7383908;19;20161;-77
2023/08/22 06:30:24;;;;;;;8.52;3.13;;;;;23.80;94655.00;;;;7384814;19;20146;-81
2023/08/22 06:32:52;;;;;;;8.00;3.30;;;;;23.90;94654.00;;;;7383232;19;20145;-81
2023/08/22 06:35:29;;;;;;;5.80;3.20;;;;;24.00;94650.00;;;;7384946;19;20592;-79
2023/08/22 06:37:58;;;;;;;4.97;3.15;;;;;24.20;94658.00;;;;7383286;19;20148;-82
2023/08/22 06:40:36;;;;;;;5.85;3.38;;;;;24.30;94651.00;;;;7379645;19;20461;-82
2023/08/22 06:43:10;;;;;;;3.50;3.20;;;;;24.50;94644.00;;;;7384653;19;20168;-80
2023/08/22 06:45:45;;;;;;;5.47;3.33;;;;;24.60;94655.00;;;;7386392;19;20173;-82
2023/08/22 06:48:20;;;;;;;9.20;3.15;;;;;24.70;94649.00;;;;7384077;19;20156;-76
2023/08/22 06:51:08;;;;;;;6.32;3.60;;;;;24.90;94654.00;;;;7386159;19;20136;-80
2023/08/22 06:53:42;;;;;;;9.70;3.38;;;;;25.00;94654.00;;;;7389421;19;20137;-80
2023/08/22 06:56:10;;;;;;;6.82;3.45;;;;;25.10;94657.00;;;;7385627;19;20156;-78
2023/08/22 06:58:45;;;;;;;3.63;3.20;;;;;25.20;94652.00;;;;7383181;19;20157;-77
2023/08/22 07:01:19;;;;;;;5.00;3.53;;;;;25.40;94650.00;;;;7381289;19;20145;-75
2023/08/22 07:03:54;;;;;;;6.80;3.45;;;;;25.50;94652.00;;;;7386400;19;20163;-79
2023/08/22 07:07:04;;;;;;;7.32;3.20;;;;;25.60;94654.00;;;;7381716;19;20179;-77
2023/08/22 07:09:39;;;;;;;4.75;3.30;;;;;25.60;94651.00;;;;7384711;19;20292;-81
2023/08/22 07:12:07;;;;;;;5.78;3.80;;;;;25.70;94652.00;;;;7381218;19;20149;-80
2023/08/22 07:14:42;;;;;;;3.90;3.25;;;;;25.80;94651.00;;;;7385860;19;20612;-82
2023/08/22 07:17:16;;;;;;;4.18;3.60;;;;;25.70;94658.00;;;;7387935;19;20575;-81
2023/08/22 07:19:45;;;;;;;7.45;3.60;;;;;25.90;94658.00;;;;7387934;19;20222;-79
2023/08/22 07:22:20;;;;;;;3.95;3.65;;;;;26.10;94663.00;;;;7385720;19;20153;-79
2023/08/22 07:24:48;;;;;;;5.50;3.80;;;;;26.20;94664.00;;;;7386530;19;20133;-82
2023/08/22 07:27:24;;;;;;;5.35;3.72;;;;;26.20;94658.00;;;;7388010;19;20643;-76
2023/08/22 07:29:52;;;;;;;6.22;3.30;;;;;26.30;94658.00;;;;7386024;19;20125;-76
2023/08/22 07:32:27;;;;;;;4.95;2.97;;;;;26.10;94661.00;;;;7385916;19;20132;-76
2023/08/22 07:34:57;;;;;;;6.18;3.92;;;;;26.30;94671.00;;;;7385604;19;20200;-77
2023/08/22 07:37:32;;;;;;;5.18;3.47;;;;;26.30;94670.00;;;;7387427;19;20136;-77
2023/08/22 07:40:07;;;;;;;4.38;3.53;;;;;26.60;94673.00;;;;7387397;19;20801;-75
2023/08/22 07:42:42;;;;;;;5.95;3.72;;;;;26.80;94667.00;;;;7387305;19;20137;-75
2023/08/22 07:45:10;;;;;;;6.63;3.72;;;;;26.60;94677.00;;;;7388357;19;20452;-74
2023/08/22 07:47:39;;;;;;;6.20;3.50;;;;;26.60;94675.00;;;;7385860;19;20160;-75
2023/08/22 07:50:13;;;;;;;3.75;3.03;;;;;27.00;94674.00;;;;7386173;19;20644;-76
2023/08/22 07:52:41;;;;;;;6.43;4.03;;;;;27.10;94681.00;;;;7387046;19;20141;-75
2023/08/22 07:55:15;;;;;;;6.60;3.70;;;;;27.40;94678.00;;;;7385078;19;20140;-76
2023/08/22 07:57:55;;;;;;;4.30;3.90;;;;;27.20;94679.00;;;;7387787;19;20133;-79
2023/08/22 08:00:29;;;;;;;5.38;3.72;;;;;27.40;94674.00;;;;7387324;19;20140;-77
2023/08/22 08:03:03;;;;;;;6.47;4.13;;;;;27.40;94685.00;;;;7385522;19;21098;-76
2023/08/22 08:05:44;;;;;;;6.22;3.60;;;;;27.30;94677.00;;;;7385811;19;20140;-75
2023/08/22 08:08:19;;;;;;;8.02;3.60;;;;;27.40;94677.00;;;;7388391;19;20625;-76
2023/08/22 08:10:54;;;;;;;8.98;3.90;;;;;27.60;94680.00;;;;7386247;19;20184;-75
2023/08/22 08:13:22;;;;;;;7.45;3.92;;;;;28.00;94677.00;;;;7387564;19;21771;-75
2023/08/22 08:15:58;;;;;;;4.10;3.70;;;;;27.80;94680.00;;;;7388230;19;20735;-77
2023/08/22 08:18:34;;;;;;;6.57;4.03;;;;;28.00;94688.00;;;;7388877;19;20152;-74
2023/08/22 08:21:08;;;;;;;8.77;3.97;;;;;28.20;94691.00;;;;7387142;19;20599;-75
2023/08/22 08:23:36;;;;;;;4.95;3.80;;;;;28.20;94685.00;;;;7385460;19;20160;-77
2023/08/22 08:26:11;;;;;;;5.82;4.20;;;;;28.50;94692.00;;;;7386929;19;20144;-76
2023/08/22 08:28:46;;;;;;;11.32;4.20;;;;;28.30;94692.00;;;;7388083;19;20125;-75
2023/08/22 08:31:20;;;;;;;8.10;4.75;;;;;28.10;94693.00;;;;7386560;19;20148;-75
2023/08/22 08:33:47;;;;;;;6.28;4.35;;;;;28.40;94700.00;;;;7389054;19;20569;-75
2023/08/22 08:36:22;;;;;;;10.10;4.30;;;;;28.00;94685.00;;;;7387561;19;20135;-75
2023/08/22 08:38:56;;;;;;;7.22;3.97;;;;;28.30;94703.00;;;;7386214;19;20141;-74
2023/08/22 08:41:23;;;;;;;5.07;4.13;;;;;28.20;94698.00;;;;7388099;19;20148;-74
2023/08/22 08:43:59;;;;;;;5.03;4.20;;;;;28.50;94689.00;;;;7386941;19;20143;-75
2023/08/22 08:46:34;;;;;;;6.05;4.72;;;;;28.80;94689.00;;;;7386167;19;20473;-78
2023/08/22 08:49:09;;;;;;;5.35;4.25;;;;;29.00;94691.00;;;;7387611;19;20133;-75
2023/08/22 08:51:38;;;;;;;6.03;4.40;;;;;29.00;94677.00;;;;7387620;19;20132;-76
2023/08/22 08:54:06;;;;;;;6.25;3.83;;;;;28.90;94681.00;;;;7385942;19;20482;-76
2023/08/22 08:56:40;;;;;;;5.20;4.00;;;;;28.90;94678.00;;;;7386556;19;20152;-76
2023/08/22 08:59:15;;;;;;;8.25;5.43;;;;;29.00;94681.00;;;;7381791;19;20484;-75
2023/08/22 09:01:52;;;;;;;6.32;4.85;;;;;29.10;94681.00;;;;7383343;19;20133;-74
2023/08/22 09:04:20;;;;;;;5.43;4.22;;;;;29.00;94675.00;;;;7380587;19;20620;-76
2023/08/22 09:06:55;;;;;;;5.53;3.83;;;;;29.00;94674.00;;;;7385742;19;20218;-74
2023/08/22 09:09:35;;;;;;;8.52;4.22;;;;;28.80;94672.00;;;;7383574;19;20148;-76
2023/08/22 09:12:10;;;;;;;5.60;4.47;;;;;29.20;94666.00;;;;7380173;19;20133;-76
2023/08/22 09:14:47;;;;;;;4.95;4.15;;;;;29.20;94677.00;;;;7381534;19;20212;-75
2023/08/22 09:17:16;;;;;;;6.50;4.38;;;;;29.30;94670.00;;;;7385192;19;20125;-75
2023/08/22 09:19:51;;;;;;;4.45;4.05;;;;;29.20;94670.00;;;;7383599;19;20239;-74
2023/08/22 09:22:19;;;;;;;5.30;4.60;;;;;29.10;94668.00;;;;7381966;19;20140;-77
2023/08/22 09:24:54;;;;;;;4.82;3.50;;;;;29.00;94667.00;;;;7380228;19;20559;-77
2023/08/22 09:27:29;;;;;;;4.97;4.25;;;;;29.30;94634.00;;;;7382609;19;20182;-75
2023/08/22 09:30:04;;;;;;;5.97;3.28;;;;;29.00;94661.00;;;;7385967;19;20141;-76
2023/08/22 09:32:38;;;;;;;9.02;3.80;;;;;29.30;94657.00;;;;7384028;19;20490;-77
2023/08/22 09:35:06;;;;;;;6.72;3.55;;;;;29.30;94657.00;;;;7384146;19;20584;-75
2023/08/22 09:37:41;;;;;;;4.70;3.47;;;;;29.40;94652.00;;;;7382850;19;20132;-76
2023/08/22 09:40:10;;;;;;;4.90;3.15;;;;;29.30;94658.00;;;;7382828;19;20176;-75
2023/08/22 09:42:46;;;;;;;9.57;4.20;;;;;29.90;94658.00;;;;7383208;19;20125;-77
2023/08/22 09:45:20;;;;;;;6.32;3.72;;;;;30.40;94673.00;;;;7384068;19;20939;-77
2023/08/22 09:47:51;;;;;;;7.57;3.40;;;;;30.00;94658.00;;;;7380600;19;20144;-77
2023/08/22 09:50:40;;;;;;;6.53;3.55;;;;;29.90;94668.00;;;;7384642;19;20163;-76
2023/08/22 09:53:09;;;;;;;5.65;3.45;;;;;29.60;94660.00;;;;7383480;19;20141;-78
2023/08/22 09:55:47;;;;;;;7.38;3.60;;;;;29.60;94661.00;;;;7383193;19;20153;-77
2023/08/22 09:58:17;;;;;;;4.03;3.55;;;;;30.10;94659.00;;;;7384702;19;20792;-76
2023/08/22 10:00:53;;;;;;;7.43;3.25;;;;;30.30;94667.00;;;;7382729;19;20551;-75
2023/08/22 10:03:23;;;;;;;4.65;4.22;;;;;30.80;94668.00;;;;7381888;19;20518;-77
2023/08/22 10:06:05;;;;;;;5.25;4.45;;;;;31.20;94670.00;;;;7384168;19;20148;-76
2023/08/22 10:08:46;;;;;;;7.22;4.00;;;;;30.60;94665.00;;;;7381760;19;20120;-76
2023/08/22 10:11:22;;;;;;;5.68;4.18;;;;;30.80;94669.00;;;;7380848;19;20142;-77
2023/08/22 10:13:51;;;;;;;5.50;4.70;;;;;30.80;94664.00;;;;7383483;19;20156;-77
2023/08/22 10:16:29;;;;;;;8.00;3.97;;;;;30.90;94674.00;;;;7383799;19;20155;-76
2023/08/22 10:19:02;;;;;;;6.38;3.50;;;;;31.00;94660.00;;;;7382725;19;20149;-76
2023/08/22 10:21:47;;;;;;;3.63;3.33;;;;;30.60;94658.00;;;;7381688;19;20136;-76
2023/08/22 10:24:21;;;;;;;5.55;3.75;;;;;30.70;94665.00;;;;7384466;19;20284;-77
2023/08/22 10:27:06;;;;;;;4.63;3.38;;;;;31.10;94652.00;;;;7383744;19;20191;-77
2023/08/22 10:29:45;;;;;;;7.25;4.25;;;;;31.10;94664.00;;;;7385087;19;20483;-76
2023/08/22 10:32:20;;;;;;;5.47;3.45;;;;;31.30;94658.00;;;;7382884;19;20152;-76
2023/08/22 10:35:00;;;;;;;5.05;3.30;;;;;31.40;94650.00;;;;7383820;19;20191;-77
2023/08/22 10:37:46;;;;;;;4.72;3.58;;;;;31.50;94658.00;;;;7387025;19;20565;-77
2023/08/22 10:40:26;;;;;;;4.50;3.25;;;;;31.60;94662.00;;;;7388054;19;20148;-76
2023/08/22 10:43:09;;;;;;;4.07;3.65;;;;;31.70;94646.00;;;;7392370;19;20152;-78
2023/08/22 10:45:52;;;;;;;5.47;3.70;;;;;30.70;94658.00;;;;7391834;19;20138;-79
2023/08/22 10:48:29;;;;;;;4.93;3.75;;;;;30.30;94660.00;;;;7390375;19;20163;-76
2023/08/22 10:51:08;;;;;;;7.18;3.70;;;;;30.80;94657.00;;;;7390434;19;20144;-75
2023/08/22 10:53:44;;;;;;;5.03;3.75;;;;;31.30;94651.00;;;;7391889;19;20149;-76
2023/08/22 10:56:25;;;;;;;8.05;3.83;;;;;31.30;94652.00;;;;7389617;19;20140;-77
2023/08/22 10:59:01;;;;;;;4.45;3.80;;;;;30.90;94677.00;;;;7389923;19;20150;-75
2023/08/22 11:01:37;;;;;;;6.47;3.75;;;;;30.90;94639.00;;;;7385615;19;20158;-76
2023/08/22 11:04:08;;;;;;;5.47;3.72;;;;;31.00;94650.00;;;;7390795;19;20485;-76
2023/08/22 11:07:05;;;;;;;4.65;3.70;;;;;31.10;94668.00;;;;7389247;19;20184;-75
2023/08/22 11:09:40;;;;;;;5.72;3.92;;;;;31.00;94648.00;;;;7390499;19;20148;-77
2023/08/22 11:12:22;;;;;;;4.97;3.78;;;;;30.50;94674.00;;;;7385117;19;20143;-76
2023/08/22 11:14:52;;;;;;;5.03;3.80;;;;;30.10;94675.00;;;;7390585;19;20136;-76
2023/08/22 11:17:30;;;;;;;7.95;4.18;;;;;30.40;94658.00;;;;7389611;19;20632;-76
2023/08/22 11:20:04;;;;;;;5.28;3.83;;;;;30.60;94645.00;;;;7388987;19;20124;-79
2023/08/22 11:22:40;;;;;;;4.63;3.50;;;;;30.70;94651.00;;;;7389944;19;20129;-77
2023/08/22 11:25:22;;;;;;;4.47;3.28;;;;;31.00;94637.00;;;;7390170;19;20524;-77
2023/08/22 11:27:56;;;;;;;5.40;3.80;;;;;31.40;94650.00;;;;7388674;19;20205;-79
2023/08/22 11:30:24;;;;;;;5.35;3.85;;;;;31.00;94648.00;;;;7387501;19;20191;-76
2023/08/22 11:32:53;;;;;;;5.70;3.50;;;;;31.30;94646.00;;;;7388143;19;21028;-78
2023/08/22 11:35:30;;;;;;;6.03;3.60;;;;;31.00;94666.00;;;;7388475;19;20591;-77
2023/08/22 11:38:06;;;;;;;5.88;3.70;;;;;30.90;94641.00;;;;7381904;19;20622;-75
2023/08/22 11:40:35;;;;;;;4.80;3.63;;;;;31.70;94638.00;;;;7386934;19;20144;-77
2023/08/22 11:43:10;;;;;;;3.78;3.22;;;;;32.40;94651.00;;;;7386982;19;20505;-75
2023/08/22 11:45:49;;;;;;;6.22;3.78;;;;;32.00;94640.00;;;;7383338;19;20135;-75
2023/08/22 11:48:25;;;;;;;3.97;3.53;;;;;32.70;94655.00;;;;7383674;19;20152;-77
2023/08/22 11:50:59;;;;;;;4.55;3.38;;;;;32.00;94653.00;;;;7388992;19;20164;-76
2023/08/22 11:53:41;;;;;;;3.75;3.38;;;;;32.00;94631.00;;;;7389464;19;20230;-78
2023/08/22 11:56:26;;;;;;;4.65;3.42;;;;;32.40;94630.00;;;;7387509;19;20125;-76
2023/08/22 11:59:00;;;;;;;4.22;3.80;;;;;32.50;94624.00;;;;7388274;19;20136;-77
2023/08/22 12:01:44;;;;;;;4.90;3.38;;;;;32.70;94626.00;;;;7387369;19;20199;-77
2023/08/22 12:04:18;;;;;;;4.15;3.75;;;;;33.10;94625.00;;;;7388429;19;20172;-78
2023/08/22 12:07:06;;;;;;;4.10;3.55;;;;;33.50;94630.00;;;;7388955;19;20179;-77
2023/08/22 12:09:41;;;;;;;4.10;3.60;;;;;33.50;94629.00;;;;7391307;19;20137;-73
2023/08/22 12:12:14;;;;;;;5.50;3.80;;;;;34.10;94651.00;;;;7395385;19;20136;-73
2023/08/22 12:14:55;;;;;;;8.30;4.00;;;;;32.70;94633.00;;;;7389631;19;20471;-73
2023/08/22 12:17:23;;;;;;;5.28;3.65;;;;;32.60;94630.00;;;;7388881;19;20139;-73
2023/08/22 12:19:58;;;;;;;4.35;3.53;;;;;33.40;94622.00;;;;7388827;19;20180;-73
2023/08/22 12:22:26;;;;;;;3.90;3.50;;;;;33.30;94632.00;;;;7389888;19;20124;-72
2023/08/22 12:24:53;;;;;;;4.15;3.53;;;;;34.30;94625.00;;;;7388892;19;20141;-73
2023/08/22 12:27:28;;;;;;;4.13;3.50;;;;;34.30;94632.00;;;;7386847;19;20149;-74
2023/08/22 12:30:02;;;;;;;4.05;3.53;;;;;34.30;94632.00;;;;7391328;19;20148;-74
2023/08/22 12:32:31;;;;;;;6.28;3.42;;;;;33.80;94628.00;;;;7390157;19;20140;-74
2023/08/22 12:35:06;;;;;;;5.13;3.60;;;;;34.10;94629.00;;;;7389928;19;20587;-76
2023/08/22 12:37:40;;;;;;;4.20;3.75;;;;;33.90;94626.00;;;;7391198;19;20144;-76
2023/08/22 12:40:15;;;;;;;6.57;3.45;;;;;33.50;94623.00;;;;7391542;19;20147;-73
2023/08/22 12:42:43;;;;;;;6.72;3.97;;;;;33.00;94630.00;;;;7386787;19;20140;-75
2023/08/22 12:45:17;;;;;;;3.88;3.45;;;;;33.50;94627.00;;;;7388515;19;20143;-75
2023/08/22 12:47:51;;;;;;;3.88;3.40;;;;;33.60;94632.00;;;;7384833;19;20164;-74
2023/08/22 12:50:25;;;;;;;4.88;3.70;;;;;34.00;94620.00;;;;7387121;19;20189;-73